Icard, NC

7:24 PM EST on November 27, 2014 (GMT -0500)
River Run Circle | Change Station
CLOSE
Current Station
Personal Weather Station
Location: Hickory, NC
Elevation: 1001 ft
Nearby Weather Stations

Elev 1001 ft 35.63 °N, 81.34 °W | Updated 1 minute ago

Partly Cloudy
Partly Cloudy
36.5 °F
Feels Like 36 °F
N
2.2
Wind Variable Wind from SW

Today
High -- | Low -- °F
--% Chance of Precip.
Yesterday
High -- | Low -- °F
Precip. -- in
7:12 AM 5:12 PM
Waxing Crescent, 34% visible
Pressure 30.21 in
Visibility 10.0 miles
Clouds Few 5000 ft
Windchill 36 °F
Dew Point 26 °F
Humidity 64%
Rainfall 0.02 in
Snow Depth Not available.
UV 0 out of 12
Pollen 1.20 out of 12
Air Quality Not available.
Flu Activity Not available.
METAR KHKY 272353Z AUTO 28007KT 10SM FEW050 03/M06 A3022 RMK AO2 SLP228 T00331056 10089 20028 51025

More Conditions Fewer Conditions

Pressure 30.21 in
Visibility 10.0 miles
Clouds Few 5000 ft
Windchill 36 °F
Dew Point 26 °F
Humidity 64%
Rainfall 0.02 in
Snow Depth Not available.
UV 0 out of 12
Pollen 1.20 out of 12
Air Quality Not available.
Flu Activity Not available.
METAR KHKY 272353Z AUTO 28007KT 10SM FEW050 03/M06 A3022 RMK AO2 SLP228 T00331056 10089 20028 51025

More Conditions Fewer Conditions

10-Day Weather Forecast

Almanac

Astronomy

Nov. 27, 2014 Rise Set
Actual Time
Civil Twilight
Nautical Twilight
Astronomical Twilight
Moon
Length of Visible Light
Length of Day
Tomorrow will be .
, % of the Moon is Illuminated

Today's Extremes

State Highs State Lows

Community

WunderPhotos

Upload Photos

1,774,146 photos uploaded!

WunderBlogs® & News

Nearby

Air Quality

  Air Quality AQ Index Pollutant
Not available.

Snow Depth

Station Depth Elevation

Earthquake Activity

City Distance Mag. Time & Date
Minimum magnitude displayed is 2.5.

Coastal Water Temperatures

Place Temperature

Nearby Weather Stations